METAR v bližini

 

LJLJ - Ljubljana/Brnik, Slovenia
Oddaljenost od postaje: W 41km
Podatki zajeti: 02/03/2024 11:00
Oblačno
Oblačno
 Veter iz smeri spremenljiv
Veter: spremenljiv 2 km/h
Temperatura: 10°C
Rosišče: 7°C
Vlažnost: 82%
Tlak: 1010 hPa
Oblačnost: Oblačno
Vidljivost: 10 km
Podrobnosti o oblakih: Rahlo oblačno 183 m
Delno oblačno 305 m
Oblačno 1676 m
2024/03/02 10:00 LJLJ 021000Z VRB01KT 9999 FEW006 SCT010 OVC055 10/07 Q1010 NOSIG
LJMB - Maribor, Slovenia
Oddaljenost od postaje: NE 63km
Podatki zajeti: 02/03/2024 11:00
Pretežno oblačno
Pretežno oblačno
 Veter iz smeri S
Veter: S 6 km/h
Temperatura: 7°C
Rosišče: 6°C
Vlažnost: 93%
Tlak: 1010 hPa
Oblačnost: Pretežno oblačno
Vidljivost: 6 km
Podrobnosti o oblakih: Pretežno oblačno 91 m
2024/03/02 10:00 LJMB 021000Z 18003KT 140V220 6000 BKN003 07/06 Q1010
 
LJPZ - Portoroz, Slovenia
Oddaljenost od postaje: SW 130km
Podatki zajeti: 02/03/2024 11:00
Pretežno oblačno
Pretežno oblačno
 Veter iz smeri spremenljiv
Veter: spremenljiv 4 km/h
Temperatura: 14°C
Rosišče: 9°C
Vlažnost: 72%
Tlak: 1010 hPa
Oblačnost: Pretežno oblačno
Vidljivost: 10 km
Podrobnosti o oblakih: Rahlo oblačno 1158 m
Delno oblačno 1676 m
Pretežno oblačno 2438 m
2024/03/02 10:00 LJPZ 021000Z VRB02KT 9999 FEW038 SCT055 BKN080 14/09 Q1010
LJCE - Cerklje, Slovenia
Oddaljenost od postaje: ESE 49km
Podatki zajeti: 02/03/2024 11:00
Delno oblačno
Delno oblačno
 Veter iz smeri spremenljiv
Veter: spremenljiv 4 km/h
Temperatura: 10°C
Rosišče: 8°C
Vlažnost: 88%
Tlak: 1010 hPa
Oblačnost: Delno oblačno
Vidljivost: 9 km
Podrobnosti o oblakih: Rahlo oblačno 152 m
Delno oblačno 1524 m
2024/03/02 10:00 LJCE 021000Z VRB02KT 9000 FEW005 SCT050 10/08 Q1010 RMK BLU
 
LDZA - Zagreb/Pleso, Croatia
Oddaljenost od postaje: ESE 96km
Podatki zajeti: 02/03/2024 11:00
Pretežno oblačno
Pretežno oblačno
 Veter iz smeri spremenljiv
Veter: spremenljiv 4 km/h
Temperatura: 9°C
Rosišče: 8°C
Vlažnost: 94%
Tlak: 1010 hPa
Oblačnost: Pretežno oblačno
Vidljivost: 6 km
Podrobnosti o oblakih: Pretežno oblačno 122 m
2024/03/02 10:00 LDZA 021000Z VRB02KT 6000 BKN004 09/08 Q1010 BECMG SCT010
LDRI - Rijeka/Omisalj, Croatia
Oddaljenost od postaje: SSW 109km
Podatki zajeti: 02/03/2024 11:00
Pretežno oblačno
Pretežno oblačno
 Veter iz smeri SE
Veter: SE 6 km/h
Temperatura: 12°C
Rosišče: 8°C
Vlažnost: 77%
Tlak: 1011 hPa
Oblačnost: Pretežno oblačno
Vidljivost: 10 km
Podrobnosti o oblakih: Rahlo oblačno 610 m
Pretežno oblačno 1219 m
2024/03/02 10:00 LDRI 021000Z 13003KT 080V200 9999 FEW020 BKN040 12/08 Q1011
 
LDPL - Pula, Croatia
Oddaljenost od postaje: SSW 164km
Podatki zajeti: 02/03/2024 11:00
Oblačno
Oblačno
 Veter iz smeri ENE
Veter: ENE 15 km/h
Temperatura: 12°C
Rosišče: 9°C
Vlažnost: 82%
Tlak: 1010 hPa
Oblačnost: Oblačno
Vidljivost: 10 km
Podrobnosti o oblakih: Delno oblačno 305 m
Rahlo oblačno 427 m
Pretežno oblačno 488 m
Oblačno 610 m
2024/03/02 10:00 LDPL 021000Z 07008KT 9999 SCT010 FEW014CB BKN016 OVC020 12/09 Q1010 BECMG SCT010 BKN016
LOWK - Klagenfurt(Civ/M, Austria
Oddaljenost od postaje: NW 76km
Podatki zajeti: 02/03/2024 11:20
Pretežno oblačno
Pretežno oblačno
 Veter iz smeri spremenljiv
Veter: spremenljiv 4 km/h
Temperatura: 9°C
Rosišče: 6°C
Vlažnost: 82%
Tlak: 1010 hPa
Oblačnost: Pretežno oblačno
Vidljivost: 10 km
Podrobnosti o oblakih: Rahlo oblačno 244 m
Pretežno oblačno 366 m
Pretežno oblačno 853 m
2024/03/02 10:20 LOWK 021020Z AUTO VRB02KT 9999 FEW008 BKN012 BKN028 09/06 Q1010 BECMG SCT010 BKN025
 
LOWG - Graz (mil/Civ), Austria
Oddaljenost od postaje: NNE 100km
Podatki zajeti: 02/03/2024 11:20
Delno oblačno
Delno oblačno
 Veter iz smeri SSE
Veter: SSE 7 km/h
Temperatura: 10°C
Občutek mraza zaradi vetra: 9°C
Rosišče: 7°C
Vlažnost: 82%
Tlak: 1009 hPa
Oblačnost: Delno oblačno
Vidljivost: 10 km
Podrobnosti o oblakih: Rahlo oblačno 305 m
Delno oblačno 335 m
2024/03/02 10:20 LOWG 021020Z AUTO 15004KT 120V180 9999 FEW010 SCT011 10/07 Q1009 NOSIG
LOAN - Wr.neustadt East, Austria
Oddaljenost od postaje: NNE 212km
Podatki zajeti: 02/03/2024 11:00
Megla, Pretežno oblačno
Megla, Pretežno oblačno
 Veter iz smeri SSE
Veter: SSE 7 km/h
Stanje: Megla
Oblačnost: Pretežno oblačno
Vidljivost: 1 km
Podrobnosti o oblakih: Pretežno oblačno 91 m
2024/03/02 10:00 LOAN 021000Z 15004KT 0900 FG BKN003
 
LIPQ - Ronchi Legionari, Italy
Oddaljenost od postaje: SW 35km
Podatki zajeti: 02/03/2024 11:20
Pretežno oblačno
Pretežno oblačno
 Veter iz smeri NE
Veter: NE 6 km/h
Temperatura: 13°C
Rosišče: 9°C
Vlažnost: 77%
Tlak: 1010 hPa
Oblačnost: Pretežno oblačno
Vidljivost: 10 km
Podrobnosti o oblakih: Pretežno oblačno 762 m
2024/03/02 10:20 LIPQ 021020Z AUTO 04003KT 350V090 9999 BKN025/// 13/09 Q1010
LIVT - Trieste, Italy
Oddaljenost od postaje: WSW 109km
Podatki zajeti: 02/03/2024 10:55

 Veter iz smeri spremenljiv
Veter: spremenljiv 4 km/h
Temperatura: 13°C
Rosišče: 9°C
Vlažnost: 77%
Tlak: 1010 hPa
2024/03/02 09:55 LIVT 020955Z AUTO VRB02KT //// 13/09 Q1010
 
LIVO - Tarvisio, Italy
Oddaljenost od postaje: NNW 49km
Podatki zajeti: 01/03/2024 10:55
Ni posodobljen
Rahlo rosi, Meglica, Oblačno
Rahlo rosi, Meglica, Oblačno
 Veter iz smeri calm
Veter: Calm
Temperatura: 5°C
Rosišče: 3°C
Vlažnost: 87%
Tlak: 1008 hPa
Stanje: Rahlo rosi, Meglica
Oblačnost: Oblačno
Vidljivost: 2 km
Podrobnosti o oblakih: Oblačno 305 m
2024/03/01 09:55 LIVO 010955Z 00000KT 2000 -DZ BR OVC010 05/03 Q1008
LIPZ - Venezia/Tessera, Italy
Oddaljenost od postaje: WSW 217km
Podatki zajeti: 02/03/2024 11:20
Pretežno oblačno
Pretežno oblačno
 Veter iz smeri NE
Veter: NE 15 km/h
Temperatura: 12°C
Rosišče: 10°C
Vlažnost: 88%
Tlak: 1010 hPa
Oblačnost: Pretežno oblačno
Vidljivost: 10 km
Podrobnosti o oblakih: Rahlo oblačno 213 m
Pretežno oblačno 366 m
2024/03/02 10:20 LIPZ 021020Z 05008KT 9999 FEW007 BKN012 12/10 Q1010 NOSIG
 
LHSM - Balaton, Hungary
Oddaljenost od postaje: ENE 177km
Podatki zajeti: 02/03/2024 10:45
Oblačno
Oblačno
 Veter iz smeri calm
Veter: Calm
Temperatura: 10°C
Rosišče: 8°C
Vlažnost: 88%
Tlak: 1011 hPa
Oblačnost: Oblačno
Vidljivost: 6 km
Podrobnosti o oblakih: Oblačno 274 m
2024/03/02 09:45 LHSM 020945Z AUTO 00000KT 6000 OVC009 10/08 Q1011 BECMG SCT012 BKN070